sensor_id;sensor_type;location;lat;lon;timestamp;pressure;altitude;pressure_sealevel;temperature;humidity
52343;BME280;38277;51.972;4.624;2023-05-19T00:02:47;102960.0;;;11.4;66.0
52343;BME280;38277;51.972;4.624;2023-05-19T00:07:18;102950.0;;;11.3;66.5
52343;BME280;38277;51.972;4.624;2023-05-19T00:12:01;102950.0;;;11.3;66.5
52343;BME280;38277;51.972;4.624;2023-05-19T00:16:10;102940.0;;;11.2;67.0
52343;BME280;38277;51.972;4.624;2023-05-19T00:20:46;102950.0;;;11.2;67.0
52343;BME280;38277;51.972;4.624;2023-05-19T00:29:59;102950.0;;;11.0;67.5
52343;BME280;38277;51.972;4.624;2023-05-19T00:34:08;102950.0;;;11.0;67.5
52343;BME280;38277;51.972;4.624;2023-05-19T00:39:04;102950.0;;;10.9;68.0
52343;BME280;38277;51.972;4.624;2023-05-19T00:43:13;102950.0;;;10.8;68.0
52343;BME280;38277;51.972;4.624;2023-05-19T00:47:59;102960.0;;;10.8;68.5
52343;BME280;38277;51.972;4.624;2023-05-19T00:52:21;102950.0;;;10.7;68.5
52343;BME280;38277;51.972;4.624;2023-05-19T00:57:03;102950.0;;;10.7;69.0
52343;BME280;38277;51.972;4.624;2023-05-19T01:01:11;102940.0;;;10.6;69.0
52343;BME280;38277;51.972;4.624;2023-05-19T01:05:57;102940.0;;;10.6;69.0
52343;BME280;38277;51.972;4.624;2023-05-19T01:10:31;102940.0;;;10.5;69.5
52343;BME280;38277;51.972;4.624;2023-05-19T01:14:38;102940.0;;;10.5;70.0
52343;BME280;38277;51.972;4.624;2023-05-19T01:19:51;102940.0;;;10.5;70.0
52343;BME280;38277;51.972;4.624;2023-05-19T01:26:03;102950.0;;;10.4;70.0
52343;BME280;38277;51.972;4.624;2023-05-19T01:30:37;102940.0;;;10.4;70.5
52343;BME280;38277;51.972;4.624;2023-05-19T01:32:55;102940.0;;;10.3;70.5
52343;BME280;38277;51.972;4.624;2023-05-19T01:37:29;102930.0;;;10.3;70.5
52343;BME280;38277;51.972;4.624;2023-05-19T01:46:26;102920.0;;;10.2;71.0
52343;BME280;38277;51.972;4.624;2023-05-19T01:51:01;102930.0;;;10.2;71.0
52343;BME280;38277;51.972;4.624;2023-05-19T02:00:15;102920.0;;;10.1;71.0
52343;BME280;38277;51.972;4.624;2023-05-19T02:04:58;102920.0;;;10.1;71.5
52343;BME280;38277;51.972;4.624;2023-05-19T02:08:58;102920.0;;;10.1;71.0
52343;BME280;38277;51.972;4.624;2023-05-19T02:17:49;102910.0;;;10.0;71.5
52343;BME280;38277;51.972;4.624;2023-05-19T02:22:11;102900.0;;;10.0;71.5
52343;BME280;38277;51.972;4.624;2023-05-19T02:26:49;102900.0;;;10.0;71.5
52343;BME280;38277;51.972;4.624;2023-05-19T02:35:52;102900.0;;;9.9;72.0
52343;BME280;38277;51.972;4.624;2023-05-19T02:40:14;102910.0;;;9.9;72.5
52343;BME280;38277;51.972;4.624;2023-05-19T02:45:15;102890.0;;;9.8;72.5
52343;BME280;38277;51.972;4.624;2023-05-19T02:49:21;102900.0;;;9.8;72.5
52343;BME280;38277;51.972;4.624;2023-05-19T02:54:21;102900.0;;;9.8;72.5
52343;BME280;38277;51.972;4.624;2023-05-19T02:58:28;102890.0;;;9.8;72.5
52343;BME280;38277;51.972;4.624;2023-05-19T03:03:27;102890.0;;;9.8;73.0
52343;BME280;38277;51.972;4.624;2023-05-19T03:07:32;102890.0;;;9.7;73.0
52343;BME280;38277;51.972;4.624;2023-05-19T03:12:02;102890.0;;;9.7;73.0
52343;BME280;38277;51.972;4.624;2023-05-19T03:16:09;102880.0;;;9.7;73.0
52343;BME280;38277;51.972;4.624;2023-05-19T03:21:30;102890.0;;;9.6;73.5
52343;BME280;38277;51.972;4.624;2023-05-19T03:25:08;102880.0;;;9.6;73.5
52343;BME280;38277;51.972;4.624;2023-05-19T03:34:08;102880.0;;;9.6;73.5
52343;BME280;38277;51.972;4.624;2023-05-19T03:39:00;102870.0;;;9.5;73.5
52343;BME280;38277;51.972;4.624;2023-05-19T03:43:20;102870.0;;;9.5;74.0
52343;BME280;38277;51.972;4.624;2023-05-19T03:48:05;102880.0;;;9.5;74.0
52343;BME280;38277;51.972;4.624;2023-05-19T03:52:28;102880.0;;;9.4;74.0
52343;BME280;38277;51.972;4.624;2023-05-19T03:56:41;102880.0;;;9.4;74.5
52343;BME280;38277;51.972;4.624;2023-05-19T04:01:09;102890.0;;;9.4;74.5
52343;BME280;38277;51.972;4.624;2023-05-19T04:10:33;102890.0;;;9.4;74.5
52343;BME280;38277;51.972;4.624;2023-05-19T04:14:50;102890.0;;;9.4;74.5
52343;BME280;38277;51.972;4.624;2023-05-19T04:19:17;102890.0;;;9.4;75.0
52343;BME280;38277;51.972;4.624;2023-05-19T04:23:49;102900.0;;;9.4;75.0
52343;BME280;38277;51.972;4.624;2023-05-19T04:28:34;102910.0;;;9.4;75.0
52343;BME280;38277;51.972;4.624;2023-05-19T04:33:10;102900.0;;;9.4;75.5
52343;BME280;38277;51.972;4.624;2023-05-19T04:37:15;102910.0;;;9.5;75.5
52343;BME280;38277;51.972;4.624;2023-05-19T04:42:00;102900.0;;;9.5;76.0
52343;BME280;38277;51.972;4.624;2023-05-19T04:46:11;102900.0;;;9.6;76.5
52343;BME280;38277;51.972;4.624;2023-05-19T04:51:04;102900.0;;;9.7;76.5
52343;BME280;38277;51.972;4.624;2023-05-19T04:55:18;102900.0;;;9.8;76.5
52343;BME280;38277;51.972;4.624;2023-05-19T04:59:59;102900.0;;;9.9;77.0
52343;BME280;38277;51.972;4.624;2023-05-19T05:04:28;102900.0;;;10.0;77.0
52343;BME280;38277;51.972;4.624;2023-05-19T05:09:03;102900.0;;;10.2;77.0
52343;BME280;38277;51.972;4.624;2023-05-19T05:13:25;102910.0;;;10.3;77.0
52343;BME280;38277;51.972;4.624;2023-05-19T05:18:03;102910.0;;;10.4;77.0
52343;BME280;38277;51.972;4.624;2023-05-19T05:22:13;102910.0;;;10.5;77.0
52343;BME280;38277;51.972;4.624;2023-05-19T05:26:39;102910.0;;;10.6;77.0
52343;BME280;38277;51.972;4.624;2023-05-19T05:31:22;102910.0;;;10.7;77.5
52343;BME280;38277;51.972;4.624;2023-05-19T05:40:31;102920.0;;;10.9;77.5
52343;BME280;38277;51.972;4.624;2023-05-19T05:44:58;102910.0;;;11.0;77.0
52343;BME280;38277;51.972;4.624;2023-05-19T05:49:28;102920.0;;;11.1;77.0
52343;BME280;38277;51.972;4.624;2023-05-19T05:54:06;102920.0;;;11.2;77.0
52343;BME280;38277;51.972;4.624;2023-05-19T05:58:27;102920.0;;;11.3;76.5
52343;BME280;38277;51.972;4.624;2023-05-19T06:02:55;102910.0;;;11.4;76.5
52343;BME280;38277;51.972;4.624;2023-05-19T06:07:17;102910.0;;;11.5;76.0
52343;BME280;38277;51.972;4.624;2023-05-19T06:16:16;102910.0;;;11.7;75.5
52343;BME280;38277;51.972;4.624;2023-05-19T06:20:46;102900.0;;;11.8;75.0
52343;BME280;38277;51.972;4.624;2023-05-19T06:25:36;102910.0;;;12.0;74.5
52343;BME280;38277;51.972;4.624;2023-05-19T06:29:54;102910.0;;;12.1;74.0
52343;BME280;38277;51.972;4.624;2023-05-19T06:34:13;102910.0;;;12.3;73.5
52343;BME280;38277;51.972;4.624;2023-05-19T06:38:54;102910.0;;;12.4;73.0
52343;BME280;38277;51.972;4.624;2023-05-19T06:43:27;102910.0;;;12.5;72.5
52343;BME280;38277;51.972;4.624;2023-05-19T06:47:50;102910.0;;;12.7;72.0
52343;BME280;38277;51.972;4.624;2023-05-19T06:52:28;102910.0;;;12.9;71.0
52343;BME280;38277;51.972;4.624;2023-05-19T06:56:58;102910.0;;;13.0;70.0
52343;BME280;38277;51.972;4.624;2023-05-19T07:01:11;102910.0;;;13.2;69.5
52343;BME280;38277;51.972;4.624;2023-05-19T07:05:45;102920.0;;;13.3;69.0
52343;BME280;38277;51.972;4.624;2023-05-19T07:14:43;102920.0;;;13.6;68.0
52343;BME280;38277;51.972;4.624;2023-05-19T07:19:13;102910.0;;;13.7;67.5
52343;BME280;38277;51.972;4.624;2023-05-19T07:28:31;102910.0;;;14.1;66.5
52343;BME280;38277;51.972;4.624;2023-05-19T07:32:57;102900.0;;;14.2;66.0
52343;BME280;38277;51.972;4.624;2023-05-19T07:37:14;102900.0;;;14.4;64.5
52343;BME280;38277;51.972;4.624;2023-05-19T07:41:56;102900.0;;;14.5;63.5
52343;BME280;38277;51.972;4.624;2023-05-19T07:50:52;102890.0;;;14.9;62.0
52343;BME280;38277;51.972;4.624;2023-05-19T07:55:34;102890.0;;;15.1;62.0
52343;BME280;38277;51.972;4.624;2023-05-19T07:59:52;102880.0;;;15.3;61.0
52343;BME280;38277;51.972;4.624;2023-05-19T08:04:27;102880.0;;;15.6;60.0
52343;BME280;38277;51.972;4.624;2023-05-19T08:08:54;102870.0;;;15.9;59.5
52343;BME280;38277;51.972;4.624;2023-05-19T08:13:30;102880.0;;;16.1;58.5
52343;BME280;38277;51.972;4.624;2023-05-19T08:17:51;102870.0;;;16.4;57.0
52343;BME280;38277;51.972;4.624;2023-05-19T08:22:19;102860.0;;;16.6;56.0
52343;BME280;38277;51.972;4.624;2023-05-19T08:27:02;102850.0;;;16.7;55.0
52343;BME280;38277;51.972;4.624;2023-05-19T08:31:23;102860.0;;;16.9;54.0
52343;BME280;38277;51.972;4.624;2023-05-19T08:35:59;102850.0;;;17.1;54.0
52343;BME280;38277;51.972;4.624;2023-05-19T08:40:28;102840.0;;;17.2;52.5
52343;BME280;38277;51.972;4.624;2023-05-19T08:44:42;102840.0;;;17.3;51.5
52343;BME280;38277;51.972;4.624;2023-05-19T08:49:26;102830.0;;;17.5;51.5
52343;BME280;38277;51.972;4.624;2023-05-19T08:58:15;102830.0;;;17.9;49.0
52343;BME280;38277;51.972;4.624;2023-05-19T09:03:01;102830.0;;;18.1;49.0
52343;BME280;38277;51.972;4.624;2023-05-19T09:07:23;102830.0;;;18.3;48.0
52343;BME280;38277;51.972;4.624;2023-05-19T09:11:51;102840.0;;;18.4;47.5
52343;BME280;38277;51.972;4.624;2023-05-19T09:20:47;102820.0;;;18.8;46.0
52343;BME280;38277;51.972;4.624;2023-05-19T09:25:33;102820.0;;;18.9;44.5
52343;BME280;38277;51.972;4.624;2023-05-19T09:29:51;102820.0;;;19.0;44.5
52343;BME280;38277;51.972;4.624;2023-05-19T09:34:19;102810.0;;;19.2;44.5
52343;BME280;38277;51.972;4.624;2023-05-19T09:38:58;102810.0;;;19.6;43.0
52343;BME280;38277;51.972;4.624;2023-05-19T09:43:35;102810.0;;;19.8;42.5
52343;BME280;38277;51.972;4.624;2023-05-19T09:48:26;102820.0;;;20.0;41.0
52343;BME280;38277;51.972;4.624;2023-05-19T09:52:14;102820.0;;;20.3;40.5
52343;BME280;38277;51.972;4.624;2023-05-19T09:56:42;102810.0;;;20.6;40.0
52343;BME280;38277;51.972;4.624;2023-05-19T10:01:26;102800.0;;;20.9;38.5
52343;BME280;38277;51.972;4.624;2023-05-19T10:05:45;102800.0;;;21.0;38.0
52343;BME280;38277;51.972;4.624;2023-05-19T10:10:14;102800.0;;;21.2;38.0
52343;BME280;38277;51.972;4.624;2023-05-19T10:14:41;102800.0;;;21.4;37.0
52343;BME280;38277;51.972;4.624;2023-05-19T10:19:10;102800.0;;;21.5;36.5
52343;BME280;38277;51.972;4.624;2023-05-19T10:23:47;102790.0;;;21.8;36.0
52343;BME280;38277;51.972;4.624;2023-05-19T10:32:54;102790.0;;;22.3;34.5
52343;BME280;38277;51.972;4.624;2023-05-19T10:38:00;102790.0;;;22.5;34.0
52343;BME280;38277;51.972;4.624;2023-05-19T10:42:25;102780.0;;;22.6;33.5
52343;BME280;38277;51.972;4.624;2023-05-19T10:46:22;102760.0;;;22.9;33.5
52343;BME280;38277;51.972;4.624;2023-05-19T10:51:06;102760.0;;;23.3;32.5
52343;BME280;38277;51.972;4.624;2023-05-19T10:55:44;102770.0;;;23.7;32.5
52343;BME280;38277;51.972;4.624;2023-05-19T11:00:30;102770.0;;;23.7;32.5
52343;BME280;38277;51.972;4.624;2023-05-19T11:04:16;102760.0;;;24.0;32.0
52343;BME280;38277;51.972;4.624;2023-05-19T11:08:56;102750.0;;;24.3;31.0
52343;BME280;38277;51.972;4.624;2023-05-19T11:13:36;102750.0;;;25.1;29.5
52343;BME280;38277;51.972;4.624;2023-05-19T11:17:51;102750.0;;;25.9;28.0
52343;BME280;38277;51.972;4.624;2023-05-19T11:22:38;102750.0;;;26.5;27.5
52343;BME280;38277;51.972;4.624;2023-05-19T11:26:57;102750.0;;;25.8;28.0
52343;BME280;38277;51.972;4.624;2023-05-19T11:31:10;102750.0;;;26.2;28.0
52343;BME280;38277;51.972;4.624;2023-05-19T11:35:54;102750.0;;;26.4;27.0
52343;BME280;38277;51.972;4.624;2023-05-19T11:40:29;102740.0;;;26.6;26.0
52343;BME280;38277;51.972;4.624;2023-05-19T11:44:54;102730.0;;;26.9;25.5
52343;BME280;38277;51.972;4.624;2023-05-19T11:49:43;102740.0;;;27.4;24.5
52343;BME280;38277;51.972;4.624;2023-05-19T11:53:49;102730.0;;;28.1;24.5
52343;BME280;38277;51.972;4.624;2023-05-19T11:58:24;102730.0;;;28.5;23.5
52343;BME280;38277;51.972;4.624;2023-05-19T12:02:55;102730.0;;;29.3;23.0
52343;BME280;38277;51.972;4.624;2023-05-19T12:07:33;102720.0;;;30.5;21.5
52343;BME280;38277;51.972;4.624;2023-05-19T12:11:53;102710.0;;;30.6;21.0
52343;BME280;38277;51.972;4.624;2023-05-19T12:16:18;102720.0;;;30.6;21.5
52343;BME280;38277;51.972;4.624;2023-05-19T12:21:23;102700.0;;;30.9;20.5
52343;BME280;38277;51.972;4.624;2023-05-19T12:25:08;102690.0;;;31.8;19.5
52343;BME280;38277;51.972;4.624;2023-05-19T12:29:38;102690.0;;;32.8;19.0
52343;BME280;38277;51.972;4.624;2023-05-19T12:34:30;102680.0;;;32.9;19.0
52343;BME280;38277;51.972;4.624;2023-05-19T12:38:38;102680.0;;;32.4;19.5
52343;BME280;38277;51.972;4.624;2023-05-19T12:43:36;102700.0;;;32.1;19.5
52343;BME280;38277;51.972;4.624;2023-05-19T12:47:56;102680.0;;;32.4;19.0
52343;BME280;38277;51.972;4.624;2023-05-19T12:52:27;102680.0;;;31.9;19.5
52343;BME280;38277;51.972;4.624;2023-05-19T12:57:04;102670.0;;;32.6;19.5
52343;BME280;38277;51.972;4.624;2023-05-19T13:01:35;102670.0;;;33.9;18.5
52343;BME280;38277;51.972;4.624;2023-05-19T13:05:49;102680.0;;;33.5;18.5
52343;BME280;38277;51.972;4.624;2023-05-19T13:10:10;102680.0;;;33.5;18.0
52343;BME280;38277;51.972;4.624;2023-05-19T13:19:13;102660.0;;;34.2;17.5
52343;BME280;38277;51.972;4.624;2023-05-19T13:23:50;102660.0;;;35.2;17.0
52343;BME280;38277;51.972;4.624;2023-05-19T13:28:35;102650.0;;;36.0;16.0
52343;BME280;38277;51.972;4.624;2023-05-19T13:32:42;102650.0;;;36.5;15.5
52343;BME280;38277;51.972;4.624;2023-05-19T13:37:23;102640.0;;;37.0;15.0
52343;BME280;38277;51.972;4.624;2023-05-19T13:41:59;102640.0;;;37.3;15.0
52343;BME280;38277;51.972;4.624;2023-05-19T13:46:16;102640.0;;;37.7;14.5
52343;BME280;38277;51.972;4.624;2023-05-19T13:55:16;102640.0;;;37.2;14.5
52343;BME280;38277;51.972;4.624;2023-05-19T14:00:02;102630.0;;;36.9;14.5
52343;BME280;38277;51.972;4.624;2023-05-19T14:04:35;102630.0;;;37.1;14.5
52343;BME280;38277;51.972;4.624;2023-05-19T14:08:55;102640.0;;;36.9;15.0
52343;BME280;38277;51.972;4.624;2023-05-19T14:13:24;102630.0;;;37.0;14.0
52343;BME280;38277;51.972;4.624;2023-05-19T14:17:48;102620.0;;;36.9;14.5
52343;BME280;38277;51.972;4.624;2023-05-19T14:22:33;102630.0;;;36.7;15.0
52343;BME280;38277;51.972;4.624;2023-05-19T14:26:46;102620.0;;;36.7;14.5
52343;BME280;38277;51.972;4.624;2023-05-19T14:31:10;102600.0;;;36.2;14.5
52343;BME280;38277;51.972;4.624;2023-05-19T14:35:51;102610.0;;;36.1;15.0
52343;BME280;38277;51.972;4.624;2023-05-19T14:40:18;102610.0;;;36.2;15.0
52343;BME280;38277;51.972;4.624;2023-05-19T14:45:17;102610.0;;;36.4;15.0
52343;BME280;38277;51.972;4.624;2023-05-19T14:53:45;102620.0;;;37.0;14.5
52343;BME280;38277;51.972;4.624;2023-05-19T14:58:10;102620.0;;;37.3;14.5
52343;BME280;38277;51.972;4.624;2023-05-19T15:02:51;102600.0;;;37.2;14.5
52343;BME280;38277;51.972;4.624;2023-05-19T15:07:18;102600.0;;;36.8;14.5
52343;BME280;38277;51.972;4.624;2023-05-19T15:11:53;102590.0;;;35.8;15.0
52343;BME280;38277;51.972;4.624;2023-05-19T15:16:24;102600.0;;;35.2;15.5
52343;BME280;38277;51.972;4.624;2023-05-19T15:20:55;102600.0;;;34.7;16.0
52343;BME280;38277;51.972;4.624;2023-05-19T15:29:40;102590.0;;;33.9;16.5
52343;BME280;38277;51.972;4.624;2023-05-19T15:34:14;102590.0;;;33.7;16.5
52343;BME280;38277;51.972;4.624;2023-05-19T15:38:43;102580.0;;;33.7;17.0
52343;BME280;38277;51.972;4.624;2023-05-19T15:43:13;102590.0;;;33.9;16.5
52343;BME280;38277;51.972;4.624;2023-05-19T15:47:46;102580.0;;;33.5;17.0
52343;BME280;38277;51.972;4.624;2023-05-19T15:52:25;102600.0;;;32.7;17.5
52343;BME280;38277;51.972;4.624;2023-05-19T15:57:06;102590.0;;;31.6;18.0
52343;BME280;38277;51.972;4.624;2023-05-19T16:01:20;102580.0;;;30.3;19.5
52343;BME280;38277;51.972;4.624;2023-05-19T16:05:52;102580.0;;;29.1;21.0
52343;BME280;38277;51.972;4.624;2023-05-19T16:10:20;102570.0;;;28.0;22.0
52343;BME280;38277;51.972;4.624;2023-05-19T16:14:49;102580.0;;;27.0;23.5
52343;BME280;38277;51.972;4.624;2023-05-19T16:19:17;102580.0;;;26.3;24.0
52343;BME280;38277;51.972;4.624;2023-05-19T16:23:57;102580.0;;;25.6;25.5
52343;BME280;38277;51.972;4.624;2023-05-19T16:32:55;102570.0;;;24.6;26.5
52343;BME280;38277;51.972;4.624;2023-05-19T16:37:35;102570.0;;;24.3;27.5
52343;BME280;38277;51.972;4.624;2023-05-19T16:42:06;102570.0;;;24.3;27.5
52343;BME280;38277;51.972;4.624;2023-05-19T16:46:36;102580.0;;;24.4;27.5
52343;BME280;38277;51.972;4.624;2023-05-19T16:50:40;102570.0;;;24.3;27.0
52343;BME280;38277;51.972;4.624;2023-05-19T16:55:24;102560.0;;;24.2;27.0
52343;BME280;38277;51.972;4.624;2023-05-19T17:00:07;102560.0;;;24.0;27.5
52343;BME280;38277;51.972;4.624;2023-05-19T17:08:38;102580.0;;;23.2;28.5
52343;BME280;38277;51.972;4.624;2023-05-19T17:13:32;102580.0;;;23.0;29.0
52343;BME280;38277;51.972;4.624;2023-05-19T17:18:07;102570.0;;;22.9;29.0
52343;BME280;38277;51.972;4.624;2023-05-19T17:22:23;102570.0;;;22.7;30.0
52343;BME280;38277;51.972;4.624;2023-05-19T17:26:46;102580.0;;;22.4;30.0
52343;BME280;38277;51.972;4.624;2023-05-19T17:31:23;102570.0;;;22.1;31.0
52343;BME280;38277;51.972;4.624;2023-05-19T17:35:56;102580.0;;;21.9;31.5
52343;BME280;38277;51.972;4.624;2023-05-19T17:41:01;102590.0;;;21.7;32.0
52343;BME280;38277;51.972;4.624;2023-05-19T17:44:40;102580.0;;;21.6;32.5
52343;BME280;38277;51.972;4.624;2023-05-19T17:49:30;102590.0;;;21.6;33.0
52343;BME280;38277;51.972;4.624;2023-05-19T17:54:07;102580.0;;;21.4;33.0
52343;BME280;38277;51.972;4.624;2023-05-19T17:58:26;102600.0;;;21.2;33.0
52343;BME280;38277;51.972;4.624;2023-05-19T18:02:38;102600.0;;;21.2;33.5
52343;BME280;38277;51.972;4.624;2023-05-19T18:12:00;102590.0;;;21.4;33.5
52343;BME280;38277;51.972;4.624;2023-05-19T18:16:34;102600.0;;;21.5;33.5
52343;BME280;38277;51.972;4.624;2023-05-19T18:20:40;102610.0;;;21.3;34.0
52343;BME280;38277;51.972;4.624;2023-05-19T18:25:33;102610.0;;;21.0;34.5
52343;BME280;38277;51.972;4.624;2023-05-19T18:29:47;102610.0;;;20.7;35.0
52343;BME280;38277;51.972;4.624;2023-05-19T18:34:31;102610.0;;;20.5;35.5
52343;BME280;38277;51.972;4.624;2023-05-19T19:37:13;102640.0;;;18.0;49.5
52343;BME280;38277;51.972;4.624;2023-05-19T19:41:59;102650.0;;;17.9;50.0
52343;BME280;38277;51.972;4.624;2023-05-19T19:46:57;102660.0;;;17.8;51.0
52343;BME280;38277;51.972;4.624;2023-05-19T19:51:24;102660.0;;;17.6;51.5
52343;BME280;38277;51.972;4.624;2023-05-19T19:55:18;102670.0;;;17.5;52.5
52343;BME280;38277;51.972;4.624;2023-05-19T19:59:46;102660.0;;;17.4;53.0
52343;BME280;38277;51.972;4.624;2023-05-19T20:08:59;102670.0;;;17.3;55.0
52343;BME280;38277;51.972;4.624;2023-05-19T20:13:23;102670.0;;;17.2;55.5
52343;BME280;38277;51.972;4.624;2023-05-19T20:17:42;102680.0;;;17.1;56.5
52343;BME280;38277;51.972;4.624;2023-05-19T20:22:22;102680.0;;;17.0;57.0
52343;BME280;38277;51.972;4.624;2023-05-19T20:31:32;102680.0;;;16.7;58.5
52343;BME280;38277;51.972;4.624;2023-05-19T20:35:58;102690.0;;;16.7;59.0
52343;BME280;38277;51.972;4.624;2023-05-19T20:45:00;102700.0;;;16.5;60.0
52343;BME280;38277;51.972;4.624;2023-05-19T20:49:15;102700.0;;;16.4;60.5
52343;BME280;38277;51.972;4.624;2023-05-19T20:54:04;102700.0;;;16.3;61.5
52343;BME280;38277;51.972;4.624;2023-05-19T20:58:27;102710.0;;;16.3;61.5
52343;BME280;38277;51.972;4.624;2023-05-19T21:03:13;102700.0;;;16.2;62.0
52343;BME280;38277;51.972;4.624;2023-05-19T21:07:37;102690.0;;;16.1;62.5
52343;BME280;38277;51.972;4.624;2023-05-19T21:11:58;102710.0;;;16.1;63.5
52343;BME280;38277;51.972;4.624;2023-05-19T21:16:23;102700.0;;;16.0;63.5
52343;BME280;38277;51.972;4.624;2023-05-19T21:21:05;102710.0;;;16.0;64.0
52343;BME280;38277;51.972;4.624;2023-05-19T21:25:29;102700.0;;;15.9;64.5
52343;BME280;38277;51.972;4.624;2023-05-19T21:29:49;102710.0;;;15.9;64.5
52343;BME280;38277;51.972;4.624;2023-05-19T21:34:30;102710.0;;;15.8;65.0
52343;BME280;38277;51.972;4.624;2023-05-19T21:38:53;102710.0;;;15.8;65.0
52343;BME280;38277;51.972;4.624;2023-05-19T21:43:12;102720.0;;;15.7;65.5
52343;BME280;38277;51.972;4.624;2023-05-19T21:47:47;102720.0;;;15.6;66.0
52343;BME280;38277;51.972;4.624;2023-05-19T21:52:25;102720.0;;;15.5;66.5
52343;BME280;38277;51.972;4.624;2023-05-19T22:01:15;102720.0;;;15.4;66.5
52343;BME280;38277;51.972;4.624;2023-05-19T22:05:52;102720.0;;;15.4;66.5
52343;BME280;38277;51.972;4.624;2023-05-19T22:10:10;102710.0;;;15.3;66.5
52343;BME280;38277;51.972;4.624;2023-05-19T22:19:36;102710.0;;;15.2;65.5
52343;BME280;38277;51.972;4.624;2023-05-19T22:23:43;102720.0;;;15.2;65.0
52343;BME280;38277;51.972;4.624;2023-05-19T22:28:32;102730.0;;;15.2;64.5
52343;BME280;38277;51.972;4.624;2023-05-19T22:37:17;102720.0;;;15.1;63.5
52343;BME280;38277;51.972;4.624;2023-05-19T22:42:01;102720.0;;;15.1;63.5
52343;BME280;38277;51.972;4.624;2023-05-19T22:46:56;102720.0;;;15.1;63.0
52343;BME280;38277;51.972;4.624;2023-05-19T22:50:40;102730.0;;;15.0;63.0
52343;BME280;38277;51.972;4.624;2023-05-19T22:55:59;102730.0;;;15.0;63.0
52343;BME280;38277;51.972;4.624;2023-05-19T23:00:01;102730.0;;;14.9;63.0
52343;BME280;38277;51.972;4.624;2023-05-19T23:04:12;102730.0;;;14.8;63.0
52343;BME280;38277;51.972;4.624;2023-05-19T23:08:59;102740.0;;;14.8;63.0
52343;BME280;38277;51.972;4.624;2023-05-19T23:13:39;102740.0;;;14.7;63.0
52343;BME280;38277;51.972;4.624;2023-05-19T23:18:05;102740.0;;;14.7;63.0
52343;BME280;38277;51.972;4.624;2023-05-19T23:22:27;102740.0;;;14.6;63.0
52343;BME280;38277;51.972;4.624;2023-05-19T23:26:44;102730.0;;;14.6;63.0
52343;BME280;38277;51.972;4.624;2023-05-19T23:31:17;102730.0;;;14.5;63.0
52343;BME280;38277;51.972;4.624;2023-05-19T23:40:17;102730.0;;;14.4;63.0
52343;BME280;38277;51.972;4.624;2023-05-19T23:44:39;102730.0;;;14.3;63.5
52343;BME280;38277;51.972;4.624;2023-05-19T23:49:26;102740.0;;;14.3;63.0
52343;BME280;38277;51.972;4.624;2023-05-19T23:53:40;102720.0;;;14.2;63.0
52343;BME280;38277;51.972;4.624;2023-05-19T23:58:11;102730.0;;;14.1;63.5
